createdAt,value
2018-05-11T00:00:03.114Z,100635.84
2018-05-11T00:02:30.506Z,100640.64
2018-05-11T00:04:57.887Z,100638.81
2018-05-11T00:07:25.293Z,100641.80
2018-05-11T00:09:52.687Z,100643.23
2018-05-11T00:12:20.091Z,100637.59
2018-05-11T00:14:47.475Z,100648.52
2018-05-11T00:17:15.134Z,100648.64
2018-05-11T00:19:42.523Z,100645.15
2018-05-11T00:22:09.911Z,100647.52
2018-05-11T00:24:37.303Z,100645.88
2018-05-11T00:27:04.690Z,100646.91
2018-05-11T00:29:32.087Z,100649.39
2018-05-11T00:31:59.644Z,100647.41
2018-05-11T00:34:27.035Z,100645.39
2018-05-11T00:36:54.430Z,100646.09
2018-05-11T00:39:21.819Z,100637.89
2018-05-11T00:41:49.211Z,100639.47
2018-05-11T00:44:16.603Z,100647.80
2018-05-11T00:46:43.987Z,100649.25
2018-05-11T00:49:11.399Z,100648.91
2018-05-11T00:51:38.783Z,100655.39
2018-05-11T00:54:06.177Z,100653.94
2018-05-11T00:56:33.569Z,100661.45
2018-05-11T00:59:01.003Z,100653.45
2018-05-11T01:01:28.354Z,100654.36
2018-05-11T01:03:55.748Z,100653.03
2018-05-11T01:06:23.143Z,100656.23
2018-05-11T01:08:50.539Z,100652.64
2018-05-11T01:11:17.931Z,100656.09
2018-05-11T01:13:45.323Z,100655.30
2018-05-11T01:16:12.718Z,100654.27
2018-05-11T01:18:40.111Z,100659.08
2018-05-11T01:21:07.487Z,100656.64
2018-05-11T01:23:34.883Z,100656.52
2018-05-11T01:26:02.270Z,100655.18
2018-05-11T01:28:29.669Z,100651.28
2018-05-11T01:30:57.059Z,100656.89
2018-05-11T01:33:24.450Z,100652.70
2018-05-11T01:35:51.843Z,100659.86
2018-05-11T01:38:19.238Z,100656.38
2018-05-11T01:40:46.635Z,100658.52
2018-05-11T01:43:14.019Z,100657.59
2018-05-11T01:45:41.415Z,100656.14
2018-05-11T01:48:08.798Z,100658.08
2018-05-11T01:50:36.199Z,100668.16
2018-05-11T01:53:03.590Z,100666.02
2018-05-11T01:55:30.999Z,100661.70
2018-05-11T01:57:58.370Z,100658.84
2018-05-11T02:00:25.761Z,100655.41
2018-05-11T02:02:53.150Z,100667.37
2018-05-11T02:05:20.535Z,100666.22
2018-05-11T02:07:47.983Z,100664.46
2018-05-11T02:10:15.354Z,100668.99
2018-05-11T02:12:42.747Z,100667.04
2018-05-11T02:15:10.134Z,100663.83
2018-05-11T02:17:37.532Z,100667.21
2018-05-11T02:20:04.915Z,100668.13
2018-05-11T02:22:32.303Z,100658.50
2018-05-11T02:24:59.694Z,100661.27
2018-05-11T02:27:27.126Z,100655.51
2018-05-11T02:29:54.499Z,100654.19
2018-05-11T02:32:21.891Z,100653.27
2018-05-11T02:34:49.301Z,100650.39
2018-05-11T02:37:16.678Z,100649.44
2018-05-11T02:39:44.071Z,100650.56
2018-05-11T02:42:11.471Z,100650.13
2018-05-11T02:44:38.860Z,100643.77
2018-05-11T02:47:06.253Z,100642.22
2018-05-11T02:49:33.639Z,100642.02
2018-05-11T02:52:01.051Z,100643.21
2018-05-11T02:54:28.423Z,100649.97
2018-05-11T02:56:55.823Z,100647.28
2018-05-11T02:59:23.211Z,100649.92
2018-05-11T03:01:50.596Z,100652.88
2018-05-11T03:04:17.986Z,100643.34
2018-05-11T03:06:45.376Z,100645.67
2018-05-11T03:09:12.763Z,100643.91
2018-05-11T03:11:40.164Z,100646.66
2018-05-11T03:14:07.558Z,100644.09
2018-05-11T03:16:35.015Z,100637.73
2018-05-11T03:19:02.432Z,100639.34
2018-05-11T03:21:29.814Z,100642.80
2018-05-11T03:23:57.206Z,100645.70
2018-05-11T03:26:24.599Z,100646.41
2018-05-11T03:28:51.982Z,100645.97
2018-05-11T03:31:19.378Z,100647.69
2018-05-11T03:33:46.763Z,100646.91
2018-05-11T03:36:14.159Z,100645.65
2018-05-11T03:38:41.547Z,100644.98
2018-05-11T03:41:08.963Z,100649.78
2018-05-11T03:43:36.346Z,100651.45
2018-05-11T03:46:03.741Z,100663.22
2018-05-11T03:48:31.146Z,100654.39
2018-05-11T03:50:58.663Z,100656.25
2018-05-11T03:53:25.971Z,100662.80
2018-05-11T03:55:53.358Z,100664.23
2018-05-11T03:58:20.751Z,100663.14
2018-05-11T04:00:48.142Z,100657.43
2018-05-11T04:03:27.323Z,100662.55
2018-05-11T04:06:04.295Z,100664.58
2018-05-11T04:08:49.407Z,100663.30
2018-05-11T04:11:16.894Z,100665.23
2018-05-11T04:13:45.135Z,100665.13
2018-05-11T04:16:12.698Z,100665.75
2018-05-11T04:18:40.095Z,100666.19
2018-05-11T04:21:07.487Z,100664.34
2018-05-11T04:23:34.879Z,100668.75
2018-05-11T04:26:02.275Z,100674.09
2018-05-11T04:28:29.660Z,100670.94
2018-05-11T04:30:57.215Z,100669.61
2018-05-11T04:33:24.602Z,100667.64
2018-05-11T04:35:52.351Z,100660.63
2018-05-11T04:38:19.741Z,100661.45
2018-05-11T04:40:47.127Z,100671.50
2018-05-11T04:43:14.523Z,100676.63
2018-05-11T04:45:41.909Z,100681.66
2018-05-11T04:48:09.309Z,100681.92
2018-05-11T04:50:36.691Z,100683.50
2018-05-11T04:53:04.091Z,100690.73
2018-05-11T04:55:31.483Z,100691.25
2018-05-11T04:57:58.960Z,100686.73
2018-05-11T05:00:26.344Z,100694.61
2018-05-11T05:02:53.729Z,100693.23
2018-05-11T05:05:21.122Z,100695.08
2018-05-11T05:07:48.530Z,100699.30
2018-05-11T05:10:15.914Z,100696.92
2018-05-11T05:12:43.308Z,100693.47
2018-05-11T05:15:10.702Z,100696.62
2018-05-11T05:17:38.084Z,100700.73
2018-05-11T05:20:05.497Z,100699.36
2018-05-11T05:22:32.911Z,100704.73
2018-05-11T05:25:00.286Z,100695.09
2018-05-11T05:27:27.675Z,100694.10
2018-05-11T05:29:55.063Z,100698.84
2018-05-11T05:32:22.459Z,100696.21
2018-05-11T05:34:49.843Z,100707.21
2018-05-11T05:37:17.245Z,100696.09
2018-05-11T05:39:44.662Z,100691.28
2018-05-11T05:42:12.051Z,100694.47
2018-05-11T05:44:39.434Z,100699.02
2018-05-11T05:47:06.823Z,100700.06
2018-05-11T05:49:34.234Z,100698.80
2018-05-11T05:52:01.689Z,100698.41
2018-05-11T05:54:29.034Z,100694.75
2018-05-11T05:56:56.439Z,100698.78
2018-05-11T05:59:23.964Z,100698.08
2018-05-11T06:01:51.359Z,100703.84
2018-05-11T06:04:18.775Z,100698.91
2018-05-11T06:06:46.167Z,100704.99
2018-05-11T06:09:13.559Z,100700.16
2018-05-11T06:11:40.951Z,100700.47
2018-05-11T06:14:08.343Z,100697.39
2018-05-11T06:16:35.831Z,100700.78
2018-05-11T06:19:03.411Z,100692.27
2018-05-11T06:21:30.811Z,100700.36
2018-05-11T06:23:58.203Z,100697.69
2018-05-11T06:26:25.595Z,100702.61
2018-05-11T06:28:53.019Z,100704.85
2018-05-11T06:31:20.415Z,100698.37
2018-05-11T06:33:47.811Z,100698.37
2018-05-11T06:36:15.207Z,100697.20
2018-05-11T06:38:42.611Z,100696.56
2018-05-11T06:41:09.999Z,100697.89
2018-05-11T06:43:37.391Z,100694.37
2018-05-11T06:46:04.844Z,100690.78
2018-05-11T06:48:32.174Z,100691.98
2018-05-11T06:50:59.578Z,100693.01
2018-05-11T06:53:26.963Z,100693.70
2018-05-11T06:55:54.439Z,100688.21
2018-05-11T06:58:21.753Z,100686.86
2018-05-11T07:00:49.155Z,100681.14
2018-05-11T07:03:16.551Z,100680.86
2018-05-11T07:05:43.939Z,100687.70
2018-05-11T07:08:11.331Z,100683.75
2018-05-11T07:10:38.719Z,100688.06
2018-05-11T07:13:06.115Z,100678.77
2018-05-11T07:15:33.504Z,100673.86
2018-05-11T07:18:00.891Z,100673.22
2018-05-11T07:20:28.283Z,100669.73
2018-05-11T07:22:55.715Z,100671.50
2018-05-11T07:25:23.091Z,100668.64
2018-05-11T07:27:50.514Z,100671.50
2018-05-11T07:30:17.899Z,100667.41
2018-05-11T07:32:45.283Z,100666.95
2018-05-11T07:35:12.675Z,100668.25
2018-05-11T07:37:40.066Z,100669.66
2018-05-11T07:40:07.451Z,100671.11
2018-05-11T07:42:34.840Z,100678.05
2018-05-11T07:45:02.233Z,100678.42
2018-05-11T07:47:29.623Z,100677.42
2018-05-11T07:49:57.007Z,100672.66
2018-05-11T07:52:24.595Z,100672.28
2018-05-11T07:54:51.894Z,100670.72
2018-05-11T07:57:19.347Z,100670.87
2018-05-11T07:59:46.742Z,100676.43
2018-05-11T08:02:14.145Z,100670.53
2018-05-11T08:04:42.511Z,100670.48
2018-05-11T08:07:09.895Z,100664.43
2018-05-11T08:09:37.286Z,100664.45
2018-05-11T08:12:04.671Z,100667.07
2018-05-11T08:14:32.086Z,100658.53
2018-05-11T08:16:59.535Z,100653.09
2018-05-11T08:19:26.857Z,100657.00
2018-05-11T08:21:54.251Z,100652.03
2018-05-11T08:24:21.639Z,100663.68
2018-05-11T08:26:49.104Z,100650.80
2018-05-11T08:29:16.418Z,100650.95
2018-05-11T08:31:43.819Z,100649.98
2018-05-11T08:34:11.207Z,100648.20
2018-05-11T08:36:38.603Z,100649.03
2018-05-11T08:39:05.982Z,100648.52
2018-05-11T08:41:33.378Z,100646.13
2018-05-11T08:44:00.775Z,100641.93
2018-05-11T08:46:28.186Z,100639.59
2018-05-11T08:48:55.559Z,100635.01
2018-05-11T08:51:22.952Z,100633.96
2018-05-11T08:53:50.347Z,100632.31
2018-05-11T08:56:17.731Z,100630.88
2018-05-11T08:58:45.122Z,100636.64
2018-05-11T09:01:12.512Z,100639.80
2018-05-11T09:03:39.899Z,100631.17
2018-05-11T09:06:07.299Z,100627.94
2018-05-11T09:08:34.777Z,100623.30
2018-05-11T09:11:02.151Z,100630.77
2018-05-11T09:13:29.548Z,100628.09
2018-05-11T09:15:56.935Z,100627.31
2018-05-11T09:18:24.326Z,100617.81
2018-05-11T09:20:51.718Z,100622.42
2018-05-11T09:23:19.123Z,100619.64
2018-05-11T09:25:46.499Z,100620.39
2018-05-11T09:28:13.903Z,100612.30
2018-05-11T09:30:41.296Z,100607.23
2018-05-11T09:33:08.793Z,100597.47
2018-05-11T09:35:36.186Z,100599.05
2018-05-11T09:38:03.636Z,100594.96
2018-05-11T09:40:31.113Z,100597.22
2018-05-11T09:42:58.479Z,100593.89
2018-05-11T09:45:25.879Z,100590.17
2018-05-11T09:47:53.268Z,100592.36
2018-05-11T09:50:20.657Z,100595.44
2018-05-11T09:52:48.053Z,100589.05
2018-05-11T09:55:15.447Z,100586.89
2018-05-11T09:57:42.843Z,100592.77
2018-05-11T10:00:10.236Z,100587.72
2018-05-11T10:02:37.679Z,100583.30
2018-05-11T10:05:05.067Z,100585.38
2018-05-11T10:07:32.462Z,100580.59
2018-05-11T10:09:59.856Z,100582.19
2018-05-11T10:12:27.358Z,100591.16
2018-05-11T10:14:54.743Z,100579.60
2018-05-11T10:17:22.135Z,100581.36
2018-05-11T10:19:49.519Z,100574.67
2018-05-11T10:22:16.914Z,100575.63
2018-05-11T10:24:44.303Z,100576.62
2018-05-11T10:27:11.703Z,100571.78
2018-05-11T10:29:39.087Z,100572.98
2018-05-11T10:32:06.736Z,100567.09
2018-05-11T10:34:34.142Z,100565.24
2018-05-11T10:37:01.507Z,100564.95
2018-05-11T10:39:28.904Z,100565.23
2018-05-11T10:41:56.300Z,100564.20
2018-05-11T10:44:23.711Z,100561.13
2018-05-11T10:46:51.096Z,100560.42
2018-05-11T10:49:18.479Z,100553.34
2018-05-11T10:51:45.879Z,100546.70
2018-05-11T10:54:13.263Z,100546.49
2018-05-11T10:56:40.670Z,100553.45
2018-05-11T10:59:08.055Z,100550.52
2018-05-11T11:01:35.459Z,100537.51
2018-05-11T11:04:02.938Z,100534.36
2018-05-11T11:06:30.327Z,100539.43
2018-05-11T11:08:57.719Z,100531.70
2018-05-11T11:11:25.106Z,100529.65
2018-05-11T11:13:52.527Z,100526.06
2018-05-11T11:16:19.920Z,100524.06
2018-05-11T11:18:47.300Z,100516.86
2018-05-11T11:21:14.699Z,100519.16
2018-05-11T11:23:42.100Z,100527.64
2018-05-11T11:26:09.499Z,100523.44
2018-05-11T11:28:36.887Z,100516.54
2018-05-11T11:31:04.290Z,100516.53
2018-05-11T11:33:31.671Z,100507.42
2018-05-11T11:35:59.059Z,100496.48
2018-05-11T11:38:26.456Z,100491.53
2018-05-11T11:40:53.839Z,100494.41
2018-05-11T11:43:21.232Z,100500.39
2018-05-11T11:45:48.637Z,100497.38
2018-05-11T11:48:16.027Z,100486.97
2018-05-11T11:50:43.411Z,100479.16
2018-05-11T11:53:10.815Z,100478.47
2018-05-11T11:55:38.203Z,100475.70
2018-05-11T11:58:05.615Z,100475.28
2018-05-11T12:00:32.999Z,100476.49
2018-05-11T12:03:00.387Z,100472.44
2018-05-11T12:05:27.783Z,100464.80
2018-05-11T12:07:55.171Z,100467.44
2018-05-11T12:10:22.568Z,100460.32
2018-05-11T12:12:49.951Z,100452.97
2018-05-11T12:15:17.346Z,100449.08
2018-05-11T12:17:44.747Z,100449.75
2018-05-11T12:20:12.131Z,100444.19
2018-05-11T12:22:39.514Z,100447.80
2018-05-11T12:25:06.928Z,100452.22
2018-05-11T12:27:34.306Z,100451.50
2018-05-11T12:30:01.700Z,100452.41
2018-05-11T12:32:29.091Z,100445.89
2018-05-11T12:34:56.508Z,100439.77
2018-05-11T12:37:23.909Z,100436.53
2018-05-11T12:39:51.276Z,100437.92
2018-05-11T12:42:18.672Z,100429.84
2018-05-11T12:44:46.079Z,100427.85
2018-05-11T12:47:13.467Z,100429.53
2018-05-11T12:49:40.879Z,100426.91
2018-05-11T12:52:09.022Z,100422.94
2018-05-11T12:54:36.510Z,100424.08
2018-05-11T12:57:03.899Z,100417.59
2018-05-11T12:59:31.291Z,100414.99
2018-05-11T13:01:58.697Z,100417.86
2018-05-11T13:04:26.199Z,100410.91
2018-05-11T13:06:53.587Z,100407.69
2018-05-11T13:09:20.983Z,100404.81
2018-05-11T13:11:48.396Z,100406.28
2018-05-11T13:14:15.796Z,100398.02
2018-05-11T13:16:43.181Z,100392.78
2018-05-11T13:19:10.562Z,100391.36
2018-05-11T13:21:37.939Z,100389.53
2018-05-11T13:24:05.358Z,100392.45
2018-05-11T13:26:32.752Z,100388.61
2018-05-11T13:29:00.144Z,100385.20
2018-05-11T13:31:27.535Z,100384.03
2018-05-11T13:33:54.925Z,100385.09
2018-05-11T13:36:22.368Z,100379.77
2018-05-11T13:38:49.768Z,100381.97
2018-05-11T13:41:17.147Z,100376.95
2018-05-11T13:43:44.543Z,100378.47
2018-05-11T13:46:11.930Z,100371.16
2018-05-11T13:48:39.320Z,100373.28
2018-05-11T13:51:06.704Z,100370.45
2018-05-11T13:53:34.093Z,100370.59
2018-05-11T13:56:01.500Z,100369.80
2018-05-11T13:58:28.883Z,100364.44
2018-05-11T14:00:56.269Z,100370.43
2018-05-11T14:03:23.657Z,100369.13
2018-05-11T14:05:51.040Z,100359.70
2018-05-11T14:08:18.429Z,100357.91
2018-05-11T14:10:45.830Z,100360.27
2018-05-11T14:13:13.217Z,100363.09
2018-05-11T14:15:41.728Z,100358.64
2018-05-11T14:18:09.158Z,100354.69
2018-05-11T14:20:36.565Z,100345.69
2018-05-11T14:23:03.942Z,100350.28
2018-05-11T14:25:31.328Z,100345.22
2018-05-11T14:27:58.724Z,100347.47
2018-05-11T14:30:26.094Z,100347.12
2018-05-11T14:32:53.487Z,100342.27
2018-05-11T14:35:20.899Z,100338.22
2018-05-11T14:37:48.324Z,100333.12
2018-05-11T14:40:15.711Z,100332.43
2018-05-11T14:42:43.099Z,100338.48
2018-05-11T14:45:10.487Z,100338.26
2018-05-11T14:47:37.879Z,100328.94
2018-05-11T14:50:05.256Z,100319.71
2018-05-11T14:52:32.647Z,100319.39
2018-05-11T14:55:00.035Z,100317.43
2018-05-11T14:57:27.474Z,100314.20
2018-05-11T14:59:54.867Z,100310.50
2018-05-11T15:02:22.254Z,100312.02
2018-05-11T15:04:49.672Z,100310.11
2018-05-11T15:07:17.059Z,100310.61
2018-05-11T15:09:44.444Z,100306.62
2018-05-11T15:12:11.831Z,100305.80
2018-05-11T15:14:39.212Z,100309.66
2018-05-11T15:17:06.663Z,100307.22
2018-05-11T15:19:34.031Z,100301.87
2018-05-11T15:22:01.471Z,100298.88
2018-05-11T15:24:28.840Z,100296.62
2018-05-11T15:26:56.243Z,100293.06
2018-05-11T15:29:23.622Z,100290.97
2018-05-11T15:31:51.009Z,100286.19
2018-05-11T15:34:18.401Z,100286.77
2018-05-11T15:36:45.775Z,100277.82
2018-05-11T15:39:13.190Z,100280.93
2018-05-11T15:41:40.583Z,100273.81
2018-05-11T15:44:07.968Z,100275.91
2018-05-11T15:46:35.347Z,100271.91
2018-05-11T15:49:02.723Z,100268.07
2018-05-11T15:51:30.231Z,100266.27
2018-05-11T15:53:57.611Z,100261.14
2018-05-11T15:56:24.995Z,100267.95
2018-05-11T15:58:52.422Z,100260.63
2018-05-11T16:01:19.832Z,100259.93
2018-05-11T16:03:47.220Z,100262.05
2018-05-11T16:06:14.619Z,100255.28
2018-05-11T16:08:42.023Z,100255.92
2018-05-11T16:11:09.407Z,100260.03
2018-05-11T16:13:36.803Z,100253.63
2018-05-11T16:16:04.179Z,100255.31
2018-05-11T16:18:31.574Z,100253.04
2018-05-11T16:20:59.107Z,100251.57
2018-05-11T16:23:26.513Z,100247.66
2018-05-11T16:25:53.900Z,100246.73
2018-05-11T16:28:21.314Z,100240.48
2018-05-11T16:30:48.680Z,100242.59
2018-05-11T16:33:16.058Z,100240.78
2018-05-11T16:35:43.527Z,100237.78
2018-05-11T16:38:10.914Z,100237.72
2018-05-11T16:40:38.393Z,100238.27
2018-05-11T16:43:05.700Z,100238.70
2018-05-11T16:45:33.094Z,100232.06
2018-05-11T16:48:00.491Z,100233.55
2018-05-11T16:50:27.891Z,100239.36
2018-05-11T16:52:55.267Z,100229.35
2018-05-11T16:55:22.647Z,100228.94
2018-05-11T16:57:50.064Z,100232.61
2018-05-11T17:00:17.449Z,100227.67
2018-05-11T17:02:44.847Z,100227.44
2018-05-11T17:05:12.240Z,100223.95
2018-05-11T17:07:39.634Z,100236.03
2018-05-11T17:10:07.020Z,100229.00
2018-05-11T17:12:34.411Z,100224.47
2018-05-11T17:15:01.811Z,100224.49
2018-05-11T17:17:29.215Z,100220.31
2018-05-11T17:19:56.602Z,100222.05
2018-05-11T17:22:23.991Z,100225.38
2018-05-11T17:24:51.389Z,100220.53
2018-05-11T17:27:18.774Z,100220.58
2018-05-11T17:29:46.183Z,100217.64
2018-05-11T17:32:13.588Z,100216.91
2018-05-11T17:34:40.972Z,100216.50
2018-05-11T17:37:08.369Z,100212.50
2018-05-11T17:39:35.753Z,100217.92
2018-05-11T17:42:03.163Z,100214.24
2018-05-11T17:44:30.552Z,100214.88
2018-05-11T17:46:57.930Z,100214.52
2018-05-11T17:49:25.328Z,100215.67
2018-05-11T17:51:52.710Z,100218.66
2018-05-11T17:54:20.118Z,100219.28
2018-05-11T17:56:47.503Z,100213.04
2018-05-11T17:59:14.891Z,100213.08
2018-05-11T18:01:42.287Z,100221.44
2018-05-11T18:04:09.683Z,100212.47
2018-05-11T18:06:37.168Z,100218.22
2018-05-11T18:09:04.458Z,100214.20
2018-05-11T18:11:31.868Z,100215.75
2018-05-11T18:13:59.259Z,100213.47
2018-05-11T18:16:26.651Z,100215.66
2018-05-11T18:18:54.132Z,100219.11
2018-05-11T18:21:21.438Z,100209.39
2018-05-11T18:23:48.851Z,100211.98
2018-05-11T18:26:16.252Z,100206.72
2018-05-11T18:28:43.635Z,100207.95
2018-05-11T18:31:11.033Z,100208.78
2018-05-11T18:33:38.419Z,100208.42
2018-05-11T18:36:05.812Z,100197.64
2018-05-11T18:38:33.199Z,100206.02
2018-05-11T18:41:00.611Z,100204.84
2018-05-11T18:43:27.999Z,100201.89
2018-05-11T18:45:55.393Z,100200.53
2018-05-11T18:48:22.804Z,100202.57
2018-05-11T18:50:50.207Z,100199.61
2018-05-11T18:53:17.803Z,100198.25
2018-05-11T18:55:44.988Z,100202.97
2018-05-11T18:58:12.386Z,100209.20
2018-05-11T19:00:39.852Z,100210.97
2018-05-11T19:03:07.228Z,100206.75
2018-05-11T19:05:34.618Z,100208.22
2018-05-11T19:08:02.004Z,100209.16
2018-05-11T19:10:29.405Z,100204.02
2018-05-11T19:12:56.861Z,100208.20
2018-05-11T19:15:24.178Z,100210.34
2018-05-11T19:17:51.616Z,100211.02
2018-05-11T19:20:18.974Z,100220.02
2018-05-11T19:22:46.379Z,100215.55
2018-05-11T19:25:13.930Z,100220.13
2018-05-11T19:27:41.387Z,100227.67
2018-05-11T19:30:08.778Z,100229.30
2018-05-11T19:32:36.171Z,100225.59
2018-05-11T19:35:03.562Z,100223.98
2018-05-11T19:37:30.955Z,100226.45
2018-05-11T19:39:58.343Z,100227.11
2018-05-11T19:42:25.837Z,100226.67
2018-05-11T19:44:53.135Z,100231.22
2018-05-11T19:47:20.527Z,100233.25
2018-05-11T19:49:47.918Z,100230.39
2018-05-11T19:52:15.361Z,100233.76
2018-05-11T19:54:42.750Z,100239.02
2018-05-11T19:57:10.144Z,100232.75
2018-05-11T19:59:37.584Z,100233.16
2018-05-11T20:02:04.975Z,100239.22
2018-05-11T20:04:32.743Z,100243.38
2018-05-11T20:07:00.136Z,100241.05
2018-05-11T20:09:27.524Z,100251.48
2018-05-11T20:11:54.919Z,100246.20
2018-05-11T20:14:22.311Z,100245.28
2018-05-11T20:16:49.709Z,100245.14
2018-05-11T20:19:17.096Z,100247.19
2018-05-11T20:21:44.486Z,100246.61
2018-05-11T20:24:11.874Z,100251.73
2018-05-11T20:26:39.271Z,100243.99
2018-05-11T20:29:06.666Z,100246.47
2018-05-11T20:31:34.051Z,100247.77
2018-05-11T20:34:01.524Z,100245.20
2018-05-11T20:36:28.910Z,100253.14
2018-05-11T20:38:56.307Z,100251.52
2018-05-11T20:41:23.691Z,100248.81
2018-05-11T20:43:51.087Z,100249.31
2018-05-11T20:46:18.475Z,100251.78
2018-05-11T20:48:45.873Z,100250.31
2018-05-11T20:51:13.263Z,100256.98
2018-05-11T20:53:40.659Z,100258.16
2018-05-11T20:56:08.047Z,100256.48
2018-05-11T20:58:35.442Z,100262.48
2018-05-11T21:01:02.831Z,100260.86
2018-05-11T21:03:30.226Z,100260.50
2018-05-11T21:05:57.710Z,100260.56
2018-05-11T21:08:25.099Z,100255.08
2018-05-11T21:10:52.557Z,100254.07
2018-05-11T21:13:19.891Z,100250.79
2018-05-11T21:15:47.287Z,100245.03
2018-05-11T21:18:14.679Z,100249.93
2018-05-11T21:20:42.070Z,100244.44
2018-05-11T21:23:09.450Z,100244.20
2018-05-11T21:25:36.846Z,100243.27
2018-05-11T21:28:04.237Z,100241.18
2018-05-11T21:30:31.627Z,100242.80
2018-05-11T21:32:59.018Z,100247.02
2018-05-11T21:35:26.416Z,100243.78
2018-05-11T21:37:53.799Z,100247.36
2018-05-11T21:40:21.191Z,100250.17
2018-05-11T21:42:48.582Z,100248.92
2018-05-11T21:45:15.987Z,100249.02
2018-05-11T21:47:43.386Z,100253.94
2018-05-11T21:50:10.766Z,100252.45
2018-05-11T21:52:38.167Z,100245.27
2018-05-11T21:55:05.551Z,100254.69
2018-05-11T21:57:32.947Z,100261.09
2018-05-11T22:00:00.330Z,100254.06
2018-05-11T22:02:27.739Z,100258.86
2018-05-11T22:04:55.131Z,100250.91
2018-05-11T22:07:22.518Z,100245.94
2018-05-11T22:09:49.906Z,100252.12
2018-05-11T22:12:17.299Z,100251.34
2018-05-11T22:14:44.687Z,100250.17
2018-05-11T22:17:12.082Z,100249.53
2018-05-11T22:19:39.584Z,100248.66
2018-05-11T22:22:06.991Z,100252.22
2018-05-11T22:24:34.371Z,100254.63
2018-05-11T22:27:01.764Z,100256.49
2018-05-11T22:29:29.147Z,100252.08
2018-05-11T22:31:56.562Z,100256.77
2018-05-11T22:34:23.951Z,100253.44
2018-05-11T22:36:51.335Z,100255.56
2018-05-11T22:39:18.736Z,100254.92
2018-05-11T22:41:46.128Z,100259.28
2018-05-11T22:44:13.519Z,100259.52
2018-05-11T22:46:40.903Z,100257.37
2018-05-11T22:49:08.294Z,100252.69
2018-05-11T22:51:35.682Z,100248.73
2018-05-11T22:54:03.078Z,100251.16
2018-05-11T22:56:30.551Z,100251.91
2018-05-11T22:58:57.942Z,100241.36
2018-05-11T23:01:25.327Z,100244.89
2018-05-11T23:03:52.719Z,100246.55
2018-05-11T23:06:20.180Z,100244.59
2018-05-11T23:08:47.579Z,100245.52
2018-05-11T23:11:14.963Z,100240.78
2018-05-11T23:13:42.347Z,100241.09
2018-05-11T23:16:09.742Z,100241.50
2018-05-11T23:18:37.331Z,100243.19
2018-05-11T23:21:04.731Z,100243.89
2018-05-11T23:23:32.106Z,100240.78
2018-05-11T23:25:59.504Z,100242.16
2018-05-11T23:28:26.903Z,100236.73
2018-05-11T23:30:54.288Z,100243.14
2018-05-11T23:33:21.676Z,100247.36
2018-05-11T23:35:49.119Z,100247.79
2018-05-11T23:38:16.512Z,100252.16
2018-05-11T23:40:43.902Z,100248.03
2018-05-11T23:43:11.292Z,100246.63
2018-05-11T23:45:38.686Z,100249.41
2018-05-11T23:48:06.207Z,100245.47
2018-05-11T23:50:33.610Z,100242.34
2018-05-11T23:53:00.998Z,100240.77
2018-05-11T23:55:28.383Z,100240.56
2018-05-11T23:57:55.775Z,100239.67
